Time;durP1;ratioP1;P1;durP2;ratioP2;P2;SDS_P1;SDS_P2;PMS_P1;PMS_P2;Temp;Humidity;BMP_temperature;BMP_pressure;BME280_temperature;BME280_humidity;BME280_pressure;Samples;Min_cycle;Max_cycle;Signal;HPM_P1;HPM_P2
2023/02/15 00:01:26;;;;;;;;;;;;;;;2.28;82.59;100236.66;5067950;28;19920;-75
2023/02/15 00:03:51;;;;;;;;;;;;;;;2.38;82.42;100233.88;5067394;28;19939;-75
2023/02/15 00:06:17;;;;;;;;;;;;;;;2.40;82.77;100239.81;5070598;28;19917;-75
2023/02/15 00:08:42;;;;;;;;;;;;;;;2.32;82.40;100237.16;5067396;28;19920;-75
2023/02/15 00:11:09;;;;;;;;;;;;;;;2.36;82.47;100235.84;5060431;28;19952;-75
2023/02/15 00:13:35;;;;;;;;;;;;;;;2.31;82.21;100227.63;5065150;28;19923;-75
2023/02/15 00:16:08;;;;;;;;;;;;;;;2.17;82.57;100231.69;5065115;28;19916;-75
2023/02/15 00:18:33;;;;;;;;;;;;;;;2.19;82.43;100239.44;5068141;28;19917;-75
2023/02/15 00:21:02;;;;;;;;;;;;;;;2.26;82.39;100225.47;5066837;28;20361;-75
2023/02/15 00:23:28;;;;;;;;;;;;;;;2.20;82.43;100226.13;5065197;28;19999;-77
2023/02/15 00:26:03;;;;;;;;;;;;;;;2.31;81.71;100226.78;5064155;28;20878;-77
2023/02/15 00:28:29;;;;;;;;;;;;;;;2.26;81.54;100217.56;5058881;28;20570;-77
2023/02/15 00:30:54;;;;;;;;;;;;;;;2.21;81.70;100217.22;5062673;28;19950;-77
2023/02/15 00:33:19;;;;;;;;;;;;;;;2.31;81.48;100217.09;5060785;28;20523;-77
2023/02/15 00:35:45;;;;;;;;;;;;;;;2.29;81.30;100209.31;5061612;28;21907;-78
2023/02/15 00:38:10;;;;;;;;;;;;;;;2.23;81.66;100209.16;5062835;28;19990;-77
2023/02/15 00:40:35;;;;;;;;;;;;;;;2.14;81.61;100215.41;5063890;28;19934;-77
2023/02/15 00:43:01;;;;;;;;;;;;;;;2.08;81.61;100198.44;5063148;28;19928;-77
2023/02/15 00:45:26;;;;;;;;;;;;;;;1.93;81.86;100204.47;5061307;28;19928;-78
2023/02/15 00:47:51;;;;;;;;;;;;;;;1.87;81.61;100213.00;5058986;28;19943;-77
2023/02/15 00:50:16;;;;;;;;;;;;;;;1.88;81.53;100198.88;5060752;28;21436;-75
2023/02/15 00:52:42;;;;;;;;;;;;;;;1.89;81.95;100211.88;5064110;28;19921;-75
2023/02/15 00:55:07;;;;;;;;;;;;;;;1.85;81.59;100205.28;5059813;28;19943;-76
2023/02/15 00:57:32;;;;;;;;;;;;;;;1.88;81.55;100201.50;5060186;28;19927;-76
2023/02/15 00:59:57;;;;;;;;;;;;;;;1.96;81.30;100196.25;5055712;28;20023;-78
2023/02/15 01:02:22;;;;;;;;;;;;;;;1.89;81.48;100203.13;5061684;28;20019;-76
2023/02/15 01:04:48;;;;;;;;;;;;;;;1.83;81.44;100201.16;5059742;28;20103;-76
2023/02/15 01:07:13;;;;;;;;;;;;;;;1.84;81.60;100208.06;5059722;28;20049;-77
2023/02/15 01:09:38;;;;;;;;;;;;;;;1.87;81.63;100207.75;5058316;28;20015;-78
2023/02/15 01:12:03;;;;;;;;;;;;;;;1.80;81.61;100209.34;5063456;28;21625;-76
2023/02/15 01:14:29;;;;;;;;;;;;;;;1.76;82.02;100203.59;5054738;28;19928;-75
2023/02/15 01:16:54;;;;;;;;;;;;;;;1.74;82.30;100202.09;5058908;28;20676;-75
2023/02/15 01:19:19;;;;;;;;;;;;;;;1.74;82.36;100200.31;5061257;28;20425;-75
2023/02/15 01:21:44;;;;;;;;;;;;;;;1.74;82.51;100202.09;5067137;28;20366;-76
2023/02/15 01:24:13;;;;;;;;;;;;;;;1.78;82.34;100192.91;5064647;28;19927;-76
2023/02/15 01:26:38;;;;;;;;;;;;;;;1.74;82.69;100188.94;5063914;28;19973;-75
2023/02/15 01:29:03;;;;;;;;;;;;;;;1.75;82.66;100194.03;5059015;28;19920;-75
2023/02/15 01:31:28;;;;;;;;;;;;;;;1.76;82.73;100194.88;5060004;28;19935;-76
2023/02/15 01:33:54;;;;;;;;;;;;;;;1.79;82.98;100186.66;5061352;28;20312;-76
2023/02/15 01:36:19;;;;;;;;;;;;;;;1.80;82.95;100186.50;5063339;28;19968;-75
2023/02/15 01:38:44;;;;;;;;;;;;;;;1.79;82.96;100189.31;5059662;28;19924;-77
2023/02/15 01:41:26;;;;;;;;;;;;;;;1.84;82.81;100184.38;5055617;28;20009;-76
2023/02/15 01:43:53;;;;;;;;;;;;;;;1.83;82.70;100188.81;5053622;28;19916;-75
2023/02/15 01:46:19;;;;;;;;;;;;;;;1.79;82.83;100187.47;5065317;28;20357;-76
2023/02/15 01:48:47;;;;;;;;;;;;;;;1.78;82.79;100182.38;5061838;28;20381;-76
2023/02/15 01:51:14;;;;;;;;;;;;;;;1.76;82.38;100179.91;5059861;28;19921;-77
2023/02/15 01:53:44;;;;;;;;;;;;;;;1.78;82.39;100180.56;5065703;28;19920;-76
2023/02/15 01:56:20;;;;;;;;;;;;;;;1.75;82.78;100177.44;5055648;28;19924;-76
2023/02/15 01:58:47;;;;;;;;;;;;;;;1.84;82.37;100177.28;5064783;28;19923;-76
2023/02/15 02:01:12;;;;;;;;;;;;;;;1.81;81.91;100179.44;5060120;28;20356;-76
2023/02/15 02:03:49;;;;;;;;;;;;;;;1.82;81.78;100181.06;5065904;28;19944;-76
2023/02/15 02:06:14;;;;;;;;;;;;;;;1.79;81.63;100169.03;5064260;28;19916;-75
2023/02/15 02:08:40;;;;;;;;;;;;;;;1.76;81.77;100179.91;5065779;28;19924;-75
2023/02/15 02:11:09;;;;;;;;;;;;;;;1.83;81.84;100180.94;5063828;28;19924;-75
2023/02/15 02:13:35;;;;;;;;;;;;;;;1.83;81.26;100174.84;5065574;28;20296;-75
2023/02/15 02:16:13;;;;;;;;;;;;;;;1.82;81.48;100168.75;5066484;28;19932;-76
2023/02/15 02:18:48;;;;;;;;;;;;;;;1.44;83.12;100164.81;5066204;28;19962;-76
2023/02/15 02:21:34;;;;;;;;;;;;;;;1.00;84.08;100162.44;5065090;28;19924;-76
2023/02/15 02:24:06;;;;;;;;;;;;;;;1.67;82.56;100162.44;5053827;28;19928;-75
2023/02/15 02:26:37;;;;;;;;;;;;;;;1.80;81.56;100154.91;5067665;28;19920;-76
2023/02/15 02:29:08;;;;;;;;;;;;;;;1.75;81.83;100161.66;5065814;28;19923;-75
2023/02/15 02:31:47;;;;;;;;;;;;;;;1.74;81.65;100165.25;5063898;28;20384;-75
2023/02/15 02:34:16;;;;;;;;;;;;;;;1.72;81.71;100165.44;5066864;28;19924;-75
2023/02/15 02:36:50;;;;;;;;;;;;;;;1.71;81.68;100153.25;5059429;28;19936;-74
2023/02/15 02:39:37;;;;;;;;;;;;;;;1.63;81.72;100157.66;5062021;28;19916;-75
2023/02/15 02:42:09;;;;;;;;;;;;;;;1.66;81.93;100165.25;5060565;28;19920;-76
2023/02/15 02:44:34;;;;;;;;;;;;;;;1.67;81.47;100161.63;5068568;28;19936;-76
2023/02/15 02:47:05;;;;;;;;;;;;;;;1.72;81.66;100157.53;5060082;28;19921;-76
2023/02/15 02:49:34;;;;;;;;;;;;;;;1.72;81.45;100148.81;5063368;28;19935;-76
2023/02/15 02:52:00;;;;;;;;;;;;;;;1.79;81.37;100145.34;5059564;28;20409;-77
2023/02/15 02:54:27;;;;;;;;;;;;;;;1.83;81.15;100135.34;5056732;28;20081;-76
2023/02/15 02:56:52;;;;;;;;;;;;;;;1.59;81.82;100141.38;5057685;28;19932;-76
2023/02/15 02:59:20;;;;;;;;;;;;;;;1.64;81.47;100135.63;5063094;28;20019;-76
2023/02/15 03:01:50;;;;;;;;;;;;;;;1.77;81.72;100138.63;5063830;28;20008;-76
2023/02/15 03:04:18;;;;;;;;;;;;;;;1.73;81.57;100137.28;5069482;28;19927;-76
2023/02/15 03:06:55;;;;;;;;;;;;;;;1.74;81.88;100134.50;5064877;28;19974;-76
2023/02/15 03:09:43;;;;;;;;;;;;;;;1.75;81.78;100130.88;5059867;28;20023;-77
2023/02/15 03:12:11;;;;;;;;;;;;;;;1.73;81.90;100121.50;5059559;28;19925;-77
2023/02/15 03:14:36;;;;;;;;;;;;;;;1.66;82.56;100125.78;5059717;28;19931;-78
2023/02/15 03:17:04;;;;;;;;;;;;;;;1.56;82.17;100123.25;5058494;28;19929;-76
2023/02/15 03:19:33;;;;;;;;;;;;;;;1.76;82.18;100108.03;5063167;28;19928;-77
2023/02/15 03:22:09;;;;;;;;;;;;;;;1.74;81.89;100112.63;5059077;28;19929;-76
2023/02/15 03:24:41;;;;;;;;;;;;;;;1.83;81.95;100106.41;5064338;28;19923;-76
2023/02/15 03:27:09;;;;;;;;;;;;;;;1.83;81.98;100112.50;5059030;28;19924;-76
2023/02/15 03:29:35;;;;;;;;;;;;;;;1.85;81.94;100105.25;5058759;28;20015;-76
2023/02/15 03:32:03;;;;;;;;;;;;;;;1.83;81.88;100103.78;5064496;28;20027;-77
2023/02/15 03:34:28;;;;;;;;;;;;;;;1.70;82.29;100106.03;5059903;28;19917;-77
2023/02/15 03:37:09;;;;;;;;;;;;;;;1.75;82.50;100099.31;5064552;28;19924;-77
2023/02/15 03:39:45;;;;;;;;;;;;;;;1.72;82.45;100086.47;5060152;28;19916;-76
2023/02/15 03:42:10;;;;;;;;;;;;;;;1.76;82.64;100089.59;5061719;28;19970;-77
2023/02/15 03:44:45;;;;;;;;;;;;;;;1.84;82.28;100086.97;5066717;28;19951;-76
2023/02/15 03:47:18;;;;;;;;;;;;;;;1.89;82.02;100084.69;5056906;28;19924;-77
2023/02/15 03:49:43;;;;;;;;;;;;;;;1.93;81.92;100086.00;5065953;28;19916;-77
2023/02/15 03:52:09;;;;;;;;;;;;;;;1.85;82.23;100086.00;5066645;28;19927;-77
2023/02/15 03:54:42;;;;;;;;;;;;;;;1.92;82.15;100087.00;5064363;28;20283;-76
2023/02/15 04:02:40;;;;;;;;;;;;;;;1.64;82.99;100089.06;5062133;28;19987;-76
2023/02/15 04:05:05;;;;;;;;;;;;;;;1.72;83.14;100089.13;5063998;28;19927;-76
2023/02/15 04:07:30;;;;;;;;;;;;;;;1.79;82.74;100084.81;5066591;28;19924;-76
2023/02/15 04:12:40;;;;;;;;;;;;;;;1.81;82.54;100082.88;5068137;28;19927;-76
2023/02/15 04:17:49;;;;;;;;;;;;;;;1.74;82.72;100079.25;5068779;28;19970;-77
2023/02/15 04:25:43;;;;;;;;;;;;;;;1.79;83.03;100084.03;5062498;28;19959;-77
2023/02/15 04:28:08;;;;;;;;;;;;;;;1.80;82.59;100088.28;5059110;28;20353;-77
2023/02/15 04:30:33;;;;;;;;;;;;;;;1.91;82.37;100085.34;5060058;28;20340;-78
2023/02/15 04:32:58;;;;;;;;;;;;;;;1.78;82.47;100080.56;5056799;28;19927;-77
2023/02/15 04:35:24;;;;;;;;;;;;;;;1.70;83.11;100088.47;5065667;28;20340;-76
2023/02/15 04:37:49;;;;;;;;;;;;;;;1.74;83.01;100092.41;5063646;28;20281;-77
2023/02/15 04:40:15;;;;;;;;;;;;;;;1.73;82.79;100084.66;5060224;28;20027;-77
2023/02/15 04:42:40;;;;;;;;;;;;;;;1.76;82.68;100085.16;5064740;28;19955;-77
2023/02/15 04:45:06;;;;;;;;;;;;;;;1.75;82.90;100086.13;5062510;28;20019;-76
2023/02/15 04:47:32;;;;;;;;;;;;;;;1.76;82.58;100085.16;5063417;28;19924;-77
2023/02/15 04:49:57;;;;;;;;;;;;;;;1.75;82.54;100083.50;5061624;28;19924;-76
2023/02/15 04:52:22;;;;;;;;;;;;;;;1.62;82.84;100079.72;5059310;28;19924;-77
2023/02/15 04:54:47;;;;;;;;;;;;;;;1.71;82.71;100079.56;5063522;28;19928;-77
2023/02/15 04:57:13;;;;;;;;;;;;;;;1.75;82.56;100072.19;5063215;28;20301;-75
2023/02/15 04:59:38;;;;;;;;;;;;;;;1.75;82.76;100072.19;5062215;28;19920;-76
2023/02/15 05:02:03;;;;;;;;;;;;;;;1.76;82.28;100068.53;5061439;28;19920;-76
2023/02/15 05:04:29;;;;;;;;;;;;;;;1.83;82.19;100065.13;5062763;28;19987;-75
2023/02/15 05:06:54;;;;;;;;;;;;;;;0.07;86.44;100057.22;5060759;28;20355;-74
2023/02/15 05:09:19;;;;;;;;;;;;;;;1.28;85.80;100064.00;5056885;28;19931;-74
2023/02/15 05:11:44;;;;;;;;;;;;;;;1.50;83.71;100068.66;5064203;28;19927;-74
2023/02/15 05:14:10;;;;;;;;;;;;;;;1.74;82.50;100057.38;5059928;28;20348;-73
2023/02/15 05:16:35;;;;;;;;;;;;;;;1.80;82.91;100060.16;5062980;28;20913;-74
2023/02/15 05:19:00;;;;;;;;;;;;;;;1.77;81.96;100051.78;5064953;28;19924;-74
2023/02/15 05:21:26;;;;;;;;;;;;;;;1.79;81.94;100047.97;5059977;28;20833;-78
2023/02/15 05:23:51;;;;;;;;;;;;;;;1.87;81.38;100045.38;5057383;28;20265;-72
2023/02/15 05:29:01;;;;;;;;;;;;;;;1.65;81.67;100042.53;5063692;28;20023;-72
2023/02/15 05:31:26;;;;;;;;;;;;;;;1.67;81.67;100040.56;5060791;28;20428;-72
2023/02/15 05:33:52;;;;;;;;;;;;;;;1.76;81.53;100039.59;5060222;28;20008;-73
2023/02/15 05:36:17;;;;;;;;;;;;;;;1.78;81.35;100035.00;5062729;28;20067;-74
2023/02/15 05:38:42;;;;;;;;;;;;;;;1.72;81.88;100027.75;5068777;28;19927;-71
2023/02/15 05:41:08;;;;;;;;;;;;;;;1.74;81.48;100031.06;5058342;28;20627;-73
2023/02/15 05:43:34;;;;;;;;;;;;;;;1.52;81.52;100038.59;5064334;28;19934;-72
2023/02/15 05:45:59;;;;;;;;;;;;;;;1.80;81.73;100033.03;5067341;28;19920;-73
2023/02/15 05:48:25;;;;;;;;;;;;;;;1.73;81.73;100027.59;5057397;28;20300;-72
2023/02/15 05:50:58;;;;;;;;;;;;;;;1.66;81.99;100037.09;5071282;28;19962;-73
2023/02/15 05:53:24;;;;;;;;;;;;;;;1.68;81.72;100029.91;5071101;28;19932;-72
2023/02/15 05:55:49;;;;;;;;;;;;;;;1.72;81.54;100047.00;5065762;28;19928;-73
2023/02/15 05:58:14;;;;;;;;;;;;;;;1.63;82.20;100047.97;5059755;28;20284;-71
2023/02/15 06:00:45;;;;;;;;;;;;;;;1.70;81.89;100043.72;5062461;28;20369;-72
2023/02/15 06:03:11;;;;;;;;;;;;;;;1.79;81.79;100058.50;5065795;28;20335;-72
2023/02/15 06:05:36;;;;;;;;;;;;;;;1.66;81.86;100063.41;5064352;28;19936;-72
2023/02/15 06:08:01;;;;;;;;;;;;;;;1.70;81.95;100064.78;5059744;28;21589;-75
2023/02/15 06:10:26;;;;;;;;;;;;;;;1.70;81.75;100058.69;5066295;28;19924;-74
2023/02/15 06:12:52;;;;;;;;;;;;;;;1.71;81.95;100060.31;5064772;28;19921;-72
2023/02/15 06:15:17;;;;;;;;;;;;;;;1.65;81.83;100064.41;5066788;28;19964;-72
2023/02/15 06:17:42;;;;;;;;;;;;;;;1.71;81.73;100062.94;5067609;28;19920;-73
2023/02/15 06:20:08;;;;;;;;;;;;;;;1.66;81.87;100063.41;5068830;28;20369;-75
2023/02/15 06:22:33;;;;;;;;;;;;;;;1.65;81.91;100060.97;5066849;28;19991;-72
2023/02/15 06:24:58;;;;;;;;;;;;;;;1.58;81.92;100055.53;5055228;28;19924;-73
2023/02/15 06:27:24;;;;;;;;;;;;;;;1.72;82.03;100051.44;5053614;28;20370;-71
2023/02/15 06:29:49;;;;;;;;;;;;;;;1.52;82.18;100057.00;5041982;28;20098;-72
2023/02/15 06:32:14;;;;;;;;;;;;;;;1.57;82.31;100055.69;5043007;28;19930;-72
2023/02/15 06:34:40;;;;;;;;;;;;;;;1.50;82.63;100060.78;5061276;28;20373;-71
2023/02/15 06:37:05;;;;;;;;;;;;;;;1.64;82.15;100064.59;5065275;28;19982;-72
2023/02/15 06:39:31;;;;;;;;;;;;;;;1.71;81.62;100061.13;5056657;28;20762;-72
2023/02/15 06:41:57;;;;;;;;;;;;;;;1.71;81.49;100061.13;5061541;28;19924;-72
2023/02/15 06:44:22;;;;;;;;;;;;;;;1.70;81.21;100066.56;5050159;28;19935;-73
2023/02/15 06:46:47;;;;;;;;;;;;;;;1.64;81.61;100056.69;5046971;28;20003;-72
2023/02/15 06:49:13;;;;;;;;;;;;;;;1.67;81.89;100051.94;5048384;28;19927;-72
2023/02/15 06:51:38;;;;;;;;;;;;;;;1.55;81.89;100055.03;5050788;28;21711;-72
2023/02/15 06:54:03;;;;;;;;;;;;;;;1.67;81.99;100059.00;5052958;28;19924;-72
2023/02/15 06:56:29;;;;;;;;;;;;;;;1.67;81.54;100053.72;5053599;28;20293;-72
2023/02/15 06:58:54;;;;;;;;;;;;;;;1.46;83.03;100056.81;5049194;28;19982;-72
2023/02/15 07:01:19;;;;;;;;;;;;;;;1.57;81.84;100053.06;5052373;28;19956;-72
2023/02/15 07:03:45;;;;;;;;;;;;;;;1.69;82.00;100046.50;5068367;28;19920;-75
2023/02/15 07:06:11;;;;;;;;;;;;;;;1.43;82.06;100041.34;5066442;28;20035;-72
2023/02/15 07:08:37;;;;;;;;;;;;;;;1.14;82.29;100043.56;5070034;28;20431;-73
2023/02/15 07:13:46;;;;;;;;;;;;;;;1.15;83.99;100038.16;5065990;28;19928;-73
2023/02/15 07:16:12;;;;;;;;;;;;;;;1.53;82.66;100034.97;5066671;28;19925;-74
2023/02/15 07:18:38;;;;;;;;;;;;;;;1.56;82.04;100035.63;5069763;28;19920;-74
2023/02/15 07:21:03;;;;;;;;;;;;;;;1.55;82.48;100026.09;5069292;28;19912;-74
2023/02/15 07:23:28;;;;;;;;;;;;;;;1.42;82.72;100029.19;5063383;28;20442;-74
2023/02/15 07:25:57;;;;;;;;;;;;;;;1.37;82.83;100016.53;5070384;28;19916;-73
2023/02/15 07:28:22;;;;;;;;;;;;;;;1.51;82.83;100022.94;5067516;28;19925;-73
2023/02/15 07:30:47;;;;;;;;;;;;;;;1.50;82.48;100018.69;5064986;28;19973;-73
2023/02/15 07:33:26;;;;;;;;;;;;;;;1.55;82.53;100019.03;5071135;28;19925;-73
2023/02/15 07:35:59;;;;;;;;;;;;;;;1.40;83.15;100021.44;5066151;28;19931;-73
2023/02/15 07:38:25;;;;;;;;;;;;;;;1.36;83.09;100016.66;5070821;28;19920;-73
2023/02/15 07:40:51;;;;;;;;;;;;;;;1.28;82.60;100009.59;5068671;28;19922;-73
2023/02/15 07:43:16;;;;;;;;;;;;;;;1.31;82.80;100017.16;5070944;28;19920;-73
2023/02/15 07:45:42;;;;;;;;;;;;;;;1.16;83.19;100012.66;5068120;28;20395;-73
2023/02/15 07:48:07;;;;;;;;;;;;;;;1.12;84.37;100006.09;5063666;28;19971;-73
2023/02/15 07:50:33;;;;;;;;;;;;;;;1.41;83.32;100006.50;5066584;28;20280;-73
2023/02/15 07:53:00;;;;;;;;;;;;;;;1.31;83.36;100006.63;5061746;28;19955;-74
2023/02/15 07:55:26;;;;;;;;;;;;;;;1.39;82.43;100008.47;5060312;28;19928;-73
2023/02/15 07:57:51;;;;;;;;;;;;;;;1.50;82.26;99995.84;5065932;28;19936;-73
2023/02/15 08:00:18;;;;;;;;;;;;;;;1.42;82.17;100002.91;5061450;28;19916;-71
2023/02/15 08:03:12;;;;;;;;;;;;;;;1.43;81.82;100004.53;5058955;28;19927;-72
2023/02/15 08:05:40;;;;;;;;;;;;;;;1.35;82.85;100009.78;5050975;28;19924;-72
2023/02/15 08:08:05;;;;;;;;;;;;;;;1.66;81.96;99996.84;5060502;28;19916;-72
2023/02/15 08:13:14;;;;;;;;;;;;;;;1.65;81.84;100003.91;5067210;28;19978;-72
2023/02/15 08:15:40;;;;;;;;;;;;;;;1.61;82.20;100001.75;5064953;28;19967;-73
2023/02/15 08:18:05;;;;;;;;;;;;;;;1.58;82.02;100005.53;5054044;28;20007;-73
2023/02/15 08:20:30;;;;;;;;;;;;;;;1.43;82.00;100005.34;5055714;28;19972;-73
2023/02/15 08:22:56;;;;;;;;;;;;;;;1.78;81.20;100006.03;5057137;28;19966;-72
2023/02/15 08:25:21;;;;;;;;;;;;;;;1.43;81.99;100013.25;5053525;28;19931;-73
2023/02/15 08:27:46;;;;;;;;;;;;;;;1.74;81.80;99996.84;5055787;28;20005;-72
2023/02/15 08:30:14;;;;;;;;;;;;;;;1.72;81.61;100011.97;5051085;28;20205;-72
2023/02/15 08:32:39;;;;;;;;;;;;;;;1.81;81.11;99993.41;5051982;28;19928;-72
2023/02/15 08:35:04;;;;;;;;;;;;;;;1.81;81.38;99997.84;5053435;28;19924;-73
2023/02/15 08:37:29;;;;;;;;;;;;;;;1.76;81.07;100003.59;5053779;28;19994;-72
2023/02/15 08:39:55;;;;;;;;;;;;;;;1.85;80.63;100013.13;5054429;28;20395;-72
2023/02/15 08:42:20;;;;;;;;;;;;;;;1.83;81.24;100012.47;5059062;28;20061;-72
2023/02/15 08:44:46;;;;;;;;;;;;;;;1.93;80.68;100017.56;5053301;28;20606;-72
2023/02/15 08:47:11;;;;;;;;;;;;;;;1.86;81.16;100021.84;5051840;28;19979;-71
2023/02/15 08:49:36;;;;;;;;;;;;;;;1.74;81.44;100012.63;5058023;28;20438;-72
2023/02/15 08:52:02;;;;;;;;;;;;;;;1.71;82.01;100011.13;5057901;28;19947;-71
2023/02/15 08:54:27;;;;;;;;;;;;;;;1.83;81.84;100007.22;5055589;28;19924;-71
2023/02/15 08:56:52;;;;;;;;;;;;;;;1.79;81.90;99997.97;5053756;28;19936;-71
2023/02/15 08:59:19;;;;;;;;;;;;;;;1.99;81.04;99996.66;5059074;28;21324;-71
2023/02/15 09:01:44;;;;;;;;;;;;;;;2.00;80.92;100000.13;5055155;28;20008;-71
2023/02/15 09:04:10;;;;;;;;;;;;;;;2.00;81.16;99987.78;5057503;28;19999;-71
2023/02/15 09:06:37;;;;;;;;;;;;;;;2.08;81.18;99986.94;5056406;28;19935;-71
2023/02/15 09:09:03;;;;;;;;;;;;;;;2.18;81.07;99988.41;5059164;28;19921;-71
2023/02/15 09:11:30;;;;;;;;;;;;;;;2.16;80.80;99979.84;5068131;28;20291;-71
2023/02/15 09:13:57;;;;;;;;;;;;;;;2.20;80.74;99983.00;5070231;28;19927;-72
2023/02/15 09:16:23;;;;;;;;;;;;;;;2.14;81.08;99973.13;5064165;28;19920;-72
2023/02/15 09:18:48;;;;;;;;;;;;;;;1.80;81.66;99975.13;5064124;28;19924;-72
2023/02/15 09:21:15;;;;;;;;;;;;;;;2.01;82.37;99970.19;5068496;28;19917;-72
2023/02/15 09:23:41;;;;;;;;;;;;;;;2.27;81.34;99973.44;5072257;28;19931;-72
2023/02/15 09:26:08;;;;;;;;;;;;;;;2.21;81.10;99974.09;5067384;28;19924;-71
2023/02/15 09:28:33;;;;;;;;;;;;;;;2.24;81.12;99973.78;5065725;28;19963;-71
2023/02/15 09:31:06;;;;;;;;;;;;;;;2.33;81.22;99962.22;5060667;28;20015;-72
2023/02/15 09:33:32;;;;;;;;;;;;;;;2.42;80.83;99961.22;5057870;28;19916;-73
2023/02/15 09:35:57;;;;;;;;;;;;;;;1.77;82.91;99964.94;5058446;28;19995;-72
2023/02/15 09:38:23;;;;;;;;;;;;;;;1.12;86.36;99972.75;5058908;28;20340;-72
2023/02/15 09:40:52;;;;;;;;;;;;;;;2.21;83.07;99966.19;5060901;28;19929;-71
2023/02/15 09:43:38;;;;;;;;;;;;;;;2.02;83.92;99956.84;5058745;28;19926;-72
2023/02/15 09:46:04;;;;;;;;;;;;;;;2.21;81.89;99961.75;5060539;28;19935;-72
2023/02/15 09:48:36;;;;;;;;;;;;;;;2.16;83.07;99958.00;5059020;28;19944;-72
2023/02/15 09:51:09;;;;;;;;;;;;;;;1.32;85.77;99957.50;5059204;28;20038;-71
2023/02/15 09:53:58;;;;;;;;;;;;;;;1.46;86.86;99952.41;5073975;28;19924;-72
2023/02/15 09:56:37;;;;;;;;;;;;;;;2.17;83.45;99957.81;5058395;28;19929;-71
2023/02/15 09:59:32;;;;;;;;;;;;;;;2.14;83.53;99957.34;5056681;28;19917;-71
2023/02/15 10:02:16;;;;;;;;;;;;;;;2.12;83.55;99959.28;5051135;28;19920;-73
2023/02/15 10:04:41;;;;;;;;;;;;;;;2.16;83.94;99961.44;5061369;28;20422;-71
2023/02/15 10:07:21;;;;;;;;;;;;;;;2.19;83.04;99957.63;5070184;28;19916;-72
2023/02/15 10:09:52;;;;;;;;;;;;;;;2.22;83.38;99952.03;5063319;28;19947;-72
2023/02/15 10:12:42;;;;;;;;;;;;;;;2.09;84.71;99963.09;5070170;28;19931;-72
2023/02/15 10:15:09;;;;;;;;;;;;;;;1.90;85.91;99955.53;5064099;28;19920;-72
2023/02/15 10:17:37;;;;;;;;;;;;;;;1.73;85.75;99960.97;5069016;28;20391;-71
2023/02/15 10:20:10;;;;;;;;;;;;;;;2.35;83.84;99954.16;5072235;28;19970;-71
2023/02/15 10:22:44;;;;;;;;;;;;;;;2.34;83.29;99950.69;5067237;28;19928;-71
2023/02/15 10:25:36;;;;;;;;;;;;;;;2.13;84.52;99945.97;5067893;28;19924;-72
2023/02/15 10:28:06;;;;;;;;;;;;;;;2.29;84.00;99942.50;5070533;28;19936;-71
2023/02/15 10:30:51;;;;;;;;;;;;;;;2.46;83.42;99936.19;5071183;28;19978;-72
2023/02/15 10:33:43;;;;;;;;;;;;;;;2.39;83.90;99948.38;5071967;28;20011;-71
2023/02/15 10:36:27;;;;;;;;;;;;;;;2.24;84.97;99942.16;5064778;28;19952;-71
2023/02/15 10:39:04;;;;;;;;;;;;;;;2.32;85.57;99934.22;5057208;28;20315;-72
2023/02/15 10:41:34;;;;;;;;;;;;;;;1.86;87.33;99937.59;5061742;28;19916;-72
2023/02/15 10:44:17;;;;;;;;;;;;;;;1.93;86.94;99933.31;5060126;28;19920;-71
2023/02/15 10:46:55;;;;;;;;;;;;;;;1.75;87.96;99917.72;5057558;28;19923;-72
2023/02/15 10:49:33;;;;;;;;;;;;;;;1.96;87.65;99911.94;5056578;28;19916;-73
2023/02/15 10:52:02;;;;;;;;;;;;;;;2.44;85.53;99911.00;5058864;28;20370;-73
2023/02/15 10:54:39;;;;;;;;;;;;;;;2.64;84.43;99907.78;5058051;28;19956;-73
2023/02/15 10:57:10;;;;;;;;;;;;;;;2.55;84.92;99913.25;5057160;28;19920;-72
2023/02/15 10:59:53;;;;;;;;;;;;;;;2.40;86.23;99909.69;5056489;28;20290;-72
2023/02/15 11:02:24;;;;;;;;;;;;;;;2.70;84.86;99907.09;5055842;28;19960;-71
2023/02/15 11:05:02;;;;;;;;;;;;;;;2.74;84.63;99900.47;5059052;28;19962;-71
2023/02/15 11:07:33;;;;;;;;;;;;;;;2.80;84.77;99915.59;5058227;28;19917;-73
2023/02/15 11:10:12;;;;;;;;;;;;;;;2.65;85.47;99901.50;5056091;28;20006;-72
2023/02/15 11:12:37;;;;;;;;;;;;;;;2.86;85.00;99893.81;5057580;28;20461;-72
2023/02/15 11:15:19;;;;;;;;;;;;;;;2.85;84.71;99892.19;5058651;28;19946;-71
2023/02/15 11:18:05;;;;;;;;;;;;;;;2.90;84.91;99902.22;5062234;28;19929;-71
2023/02/15 11:20:36;;;;;;;;;;;;;;;2.91;85.09;99907.31;5035203;28;19921;-72
2023/02/15 11:23:02;;;;;;;;;;;;;;;3.05;85.04;99911.03;5056733;28;19924;-72
2023/02/15 11:25:32;;;;;;;;;;;;;;;2.83;85.94;99911.81;5057143;28;19924;-72
2023/02/15 11:27:58;;;;;;;;;;;;;;;3.04;85.09;99894.38;5059521;28;19970;-71
2023/02/15 11:30:35;;;;;;;;;;;;;;;3.14;85.07;99899.44;5055384;28;19921;-72
2023/02/15 11:33:02;;;;;;;;;;;;;;;2.79;86.62;99894.69;5055152;28;20011;-71
2023/02/15 11:35:31;;;;;;;;;;;;;;;3.16;85.58;99891.34;5055402;28;20312;-73
2023/02/15 11:37:56;;;;;;;;;;;;;;;3.35;84.61;99896.13;5057138;28;20043;-72
2023/02/15 11:40:27;;;;;;;;;;;;;;;3.24;84.78;99886.81;5055988;28;20023;-71
2023/02/15 11:42:55;;;;;;;;;;;;;;;3.35;84.58;99890.84;5066253;28;20546;-73
2023/02/15 11:45:34;;;;;;;;;;;;;;;3.53;84.54;99894.84;5057857;28;19921;-71
2023/02/15 11:48:00;;;;;;;;;;;;;;;3.75;83.18;99882.63;5054148;28;19925;-71
2023/02/15 11:50:26;;;;;;;;;;;;;;;3.82;82.88;99885.34;5054862;28;19962;-71
2023/02/15 11:53:12;;;;;;;;;;;;;;;3.74;83.53;99880.97;5056137;28;20004;-72
2023/02/15 11:55:38;;;;;;;;;;;;;;;3.87;83.96;99885.66;5056660;28;20011;-72
2023/02/15 11:58:25;;;;;;;;;;;;;;;4.06;83.32;99874.53;5054590;28;19927;-72
2023/02/15 12:00:55;;;;;;;;;;;;;;;4.08;83.37;99867.25;5054522;28;19925;-72
2023/02/15 12:03:26;;;;;;;;;;;;;;;4.26;82.20;99873.00;5060704;28;20007;-72
2023/02/15 12:05:56;;;;;;;;;;;;;;;4.30;82.97;99871.63;5069071;28;19916;-71
2023/02/15 12:08:21;;;;;;;;;;;;;;;4.41;82.30;99868.53;5068529;28;19981;-72
2023/02/15 12:10:57;;;;;;;;;;;;;;;4.62;81.18;99870.41;5059618;28;20376;-72
2023/02/15 12:13:23;;;;;;;;;;;;;;;4.63;80.67;99872.84;5065999;28;19952;-72
2023/02/15 12:15:53;;;;;;;;;;;;;;;4.64;80.95;99868.38;5068565;28;20367;-73
2023/02/15 12:18:31;;;;;;;;;;;;;;;4.68;80.39;99878.41;5069406;28;20393;-72
2023/02/15 12:21:00;;;;;;;;;;;;;;;4.48;80.99;99870.25;5068852;28;20432;-71
2023/02/15 12:23:27;;;;;;;;;;;;;;;4.70;80.08;99865.00;5069631;28;20029;-71
2023/02/15 12:25:54;;;;;;;;;;;;;;;4.77;81.94;99863.25;5068344;28;19921;-73
2023/02/15 12:28:19;;;;;;;;;;;;;;;5.02;79.90;99860.06;5067314;28;20381;-73
2023/02/15 12:30:45;;;;;;;;;;;;;;;5.11;79.91;99847.56;5069482;28;19922;-73
2023/02/15 12:33:24;;;;;;;;;;;;;;;5.25;79.10;99847.50;5069707;28;19928;-72
2023/02/15 12:35:57;;;;;;;;;;;;;;;5.30;79.14;99852.22;5057156;28;20032;-71
2023/02/15 12:38:24;;;;;;;;;;;;;;;5.32;78.05;99850.19;5054394;28;20966;-72
2023/02/15 12:40:59;;;;;;;;;;;;;;;5.55;77.60;99853.44;5053166;28;19943;-72
2023/02/15 12:43:26;;;;;;;;;;;;;;;5.55;77.59;99842.06;5056986;28;20465;-73
2023/02/15 12:45:51;;;;;;;;;;;;;;;5.72;77.33;99841.53;5053587;28;19928;-71
2023/02/15 12:48:20;;;;;;;;;;;;;;;5.57;77.88;99840.81;5054206;28;20301;-72
2023/02/15 12:50:45;;;;;;;;;;;;;;;5.65;77.40;99839.88;5053270;28;20401;-72
2023/02/15 12:53:23;;;;;;;;;;;;;;;5.51;77.53;99835.47;5057401;28;20106;-71
2023/02/15 12:55:55;;;;;;;;;;;;;;;5.86;77.59;99832.72;5054573;28;19928;-71
2023/02/15 12:58:23;;;;;;;;;;;;;;;5.85;77.39;99836.38;5054112;28;19916;-72
2023/02/15 13:01:19;;;;;;;;;;;;;;;6.07;76.06;99824.69;5054282;28;19920;-73
2023/02/15 13:03:53;;;;;;;;;;;;;;;6.21;75.80;99822.13;5052961;28;19924;-71
2023/02/15 13:06:18;;;;;;;;;;;;;;;6.28;75.71;99818.50;5055503;28;19970;-71
2023/02/15 13:08:52;;;;;;;;;;;;;;;6.28;75.89;99820.31;5055030;28;20492;-71
2023/02/15 13:11:29;;;;;;;;;;;;;;;6.16;75.77;99820.06;5056978;28;19971;-73
2023/02/15 13:13:58;;;;;;;;;;;;;;;6.40;75.14;99822.19;5052247;28;19923;-72
2023/02/15 13:16:35;;;;;;;;;;;;;;;6.23;75.59;99812.13;5050992;28;19977;-72
2023/02/15 13:19:06;;;;;;;;;;;;;;;6.26;74.96;99811.75;5051166;28;19920;-72
2023/02/15 13:21:36;;;;;;;;;;;;;;;6.51;75.33;99800.44;5055285;28;19950;-72
2023/02/15 13:24:10;;;;;;;;;;;;;;;6.67;75.11;99802.72;5054411;28;19935;-71